Time;durP1;ratioP1;P1;durP2;ratioP2;P2;SDS_P1;SDS_P2;PMS_P1;PMS_P2;Temp;Humidity;BMP_temperature;BMP_pressure;BME280_temperature;BME280_humidity;BME280_pressure;Samples;Min_cycle;Max_cycle;Signal;HPM_P1;HPM_P2
2022/05/05 00:02:05;;;;;;;;;;;15.30;60.10;;;;;;4939630;29;19926;-59
2022/05/05 00:04:30;;;;;;;;;;;15.30;59.80;;;;;;4939506;29;19922;-58
2022/05/05 00:06:56;;;;;;;;;;;15.40;60.50;;;;;;4939878;29;19918;-60
2022/05/05 00:09:21;;;;;;;;;;;15.40;58.80;;;;;;4939550;29;19911;-59
2022/05/05 00:14:31;;;;;;;;;;;15.80;53.80;;;;;;4939566;29;20074;-58
2022/05/05 00:17:04;;;;;;;;;;;16.20;52.10;;;;;;4939282;29;19954;-59
2022/05/05 00:19:30;;;;;;;;;;;16.30;51.30;;;;;;4939170;29;19915;-59
2022/05/05 00:21:56;;;;;;;;;;;16.50;50.40;;;;;;4939118;29;19919;-59
2022/05/05 00:24:22;;;;;;;;;;;16.60;50.40;;;;;;4938991;29;19929;-60
2022/05/05 00:26:48;;;;;;;;;;;16.50;50.10;;;;;;4938997;29;19914;-61
2022/05/05 00:29:13;;;;;;;;;;;16.50;50.00;;;;;;4938975;29;19915;-59
2022/05/05 00:31:39;;;;;;;;;;;16.50;49.90;;;;;;4939007;29;19911;-59
2022/05/05 00:34:05;;;;;;;;;;;16.50;49.70;;;;;;4938647;29;19911;-58
2022/05/05 00:36:30;;;;;;;;;;;16.60;48.90;;;;;;4938843;29;19911;-58
2022/05/05 00:38:56;;;;;;;;;;;16.60;48.60;;;;;;4938624;29;19911;-59
2022/05/05 00:41:22;;;;;;;;;;;16.60;48.70;;;;;;4938843;29;19918;-60
2022/05/05 00:43:48;;;;;;;;;;;16.60;48.00;;;;;;4938688;29;19911;-59
2022/05/05 00:46:13;;;;;;;;;;;16.60;47.80;;;;;;4938603;29;20001;-59
2022/05/05 00:48:42;;;;;;;;;;;16.60;47.70;;;;;;4938396;29;19911;-59
2022/05/05 00:51:08;;;;;;;;;;;16.60;47.70;;;;;;4937971;29;19965;-60
2022/05/05 00:53:34;;;;;;;;;;;16.60;47.80;;;;;;4938159;29;19911;-59
2022/05/05 00:56:03;;;;;;;;;;;16.50;48.10;;;;;;4938485;29;20252;-59
2022/05/05 00:58:29;;;;;;;;;;;16.50;48.30;;;;;;4938120;29;19918;-59
2022/05/05 01:00:55;;;;;;;;;;;16.50;48.20;;;;;;4938302;29;20287;-61
2022/05/05 01:03:21;;;;;;;;;;;16.60;47.80;;;;;;4938047;29;19927;-59
2022/05/05 01:05:47;;;;;;;;;;;16.60;47.70;;;;;;4938108;29;19910;-59
2022/05/05 01:08:15;;;;;;;;;;;16.60;47.70;;;;;;4938306;29;19994;-60
2022/05/05 01:10:41;;;;;;;;;;;16.50;47.70;;;;;;4938162;29;19911;-59
2022/05/05 01:13:06;;;;;;;;;;;16.50;47.70;;;;;;4938379;29;20005;-60
2022/05/05 01:15:34;;;;;;;;;;;16.50;47.80;;;;;;4938241;29;19911;-60
2022/05/05 01:17:59;;;;;;;;;;;16.50;47.80;;;;;;4938028;29;19911;-60
2022/05/05 01:20:25;;;;;;;;;;;16.50;47.80;;;;;;4937679;29;19969;-60
2022/05/05 01:22:51;;;;;;;;;;;16.40;47.90;;;;;;4938185;29;19911;-59
2022/05/05 01:28:14;;;;;;;;;;;16.60;48.00;;;;;;4938421;29;19917;-58
2022/05/05 01:30:44;;;;;;;;;;;16.60;48.00;;;;;;4937549;29;19981;-60
2022/05/05 01:33:13;;;;;;;;;;;16.60;48.20;;;;;;4937490;29;19914;-59
2022/05/05 01:35:39;;;;;;;;;;;16.60;48.70;;;;;;4937654;29;20355;-59
2022/05/05 01:38:06;;;;;;;;;;;16.60;49.60;;;;;;4937739;29;19958;-59
2022/05/05 01:40:32;;;;;;;;;;;16.70;50.80;;;;;;4937622;29;20005;-60
2022/05/05 01:42:58;;;;;;;;;;;16.80;51.10;;;;;;4937522;29;19957;-60
2022/05/05 01:45:24;;;;;;;;;;;16.80;53.00;;;;;;4937563;29;19986;-59
2022/05/05 01:47:49;;;;;;;;;;;16.80;55.20;;;;;;4937706;29;20386;-59
2022/05/05 01:50:15;;;;;;;;;;;16.80;55.90;;;;;;4937486;29;20299;-59
2022/05/05 01:52:40;;;;;;;;;;;16.70;56.10;;;;;;4937381;29;20355;-59
2022/05/05 01:55:06;;;;;;;;;;;16.80;55.80;;;;;;4937564;29;20371;-59
2022/05/05 01:57:32;;;;;;;;;;;16.80;55.40;;;;;;4937505;29;19993;-59
2022/05/05 02:00:00;;;;;;;;;;;16.70;53.60;;;;;;4936963;29;19918;-59
2022/05/05 02:02:26;;;;;;;;;;;16.90;52.30;;;;;;4936498;29;19911;-59
2022/05/05 02:04:52;;;;;;;;;;;16.80;51.30;;;;;;4937322;29;19922;-60
2022/05/05 02:07:17;;;;;;;;;;;16.80;51.50;;;;;;4937258;29;19917;-60
2022/05/05 02:09:43;;;;;;;;;;;16.80;52.50;;;;;;4936988;29;19917;-58
2022/05/05 02:12:09;;;;;;;;;;;16.80;53.50;;;;;;4936964;29;19910;-60
2022/05/05 02:14:34;;;;;;;;;;;16.80;54.70;;;;;;4936902;29;19970;-60
2022/05/05 02:17:00;;;;;;;;;;;16.70;54.60;;;;;;4936971;29;19918;-60
2022/05/05 02:19:26;;;;;;;;;;;16.70;54.80;;;;;;4936664;29;19997;-60
2022/05/05 02:21:51;;;;;;;;;;;16.80;54.90;;;;;;4937328;29;20005;-60
2022/05/05 02:24:17;;;;;;;;;;;16.70;55.40;;;;;;4936846;29;20302;-60
2022/05/05 02:26:42;;;;;;;;;;;16.70;56.00;;;;;;4936761;29;20263;-60
2022/05/05 02:29:08;;;;;;;;;;;16.70;56.00;;;;;;4936619;29;20387;-60
2022/05/05 02:31:34;;;;;;;;;;;16.70;55.70;;;;;;4936989;29;20386;-60
2022/05/05 02:33:59;;;;;;;;;;;16.70;55.80;;;;;;4937087;29;19911;-61
2022/05/05 02:39:09;;;;;;;;;;;16.70;55.40;;;;;;4936724;29;19918;-58
2022/05/05 02:41:35;;;;;;;;;;;16.70;55.50;;;;;;4936658;29;19934;-60
2022/05/05 02:44:00;;;;;;;;;;;16.70;56.00;;;;;;4937472;29;19910;-61
2022/05/05 02:46:26;;;;;;;;;;;16.70;56.50;;;;;;4944927;29;19911;-59
2022/05/05 02:48:51;;;;;;;;;;;16.60;57.00;;;;;;4943885;29;19965;-61
2022/05/05 02:51:17;;;;;;;;;;;16.50;56.70;;;;;;4942462;29;19978;-60
2022/05/05 02:56:27;;;;;;;;;;;16.30;56.80;;;;;;4941728;29;19966;-60
2022/05/05 02:58:53;;;;;;;;;;;16.20;56.60;;;;;;4937217;29;19910;-61
2022/05/05 03:01:19;;;;;;;;;;;16.10;57.80;;;;;;4936614;29;20018;-60
2022/05/05 03:03:44;;;;;;;;;;;16.00;58.20;;;;;;4936373;29;19923;-61
2022/05/05 03:06:10;;;;;;;;;;;15.90;58.40;;;;;;4936377;29;19910;-59
2022/05/05 03:08:35;;;;;;;;;;;15.90;58.20;;;;;;4936273;29;20279;-59
2022/05/05 03:11:01;;;;;;;;;;;15.90;57.30;;;;;;4936225;29;20262;-58
2022/05/05 03:13:26;;;;;;;;;;;15.90;56.80;;;;;;4938409;29;19910;-61
2022/05/05 03:15:52;;;;;;;;;;;16.00;56.60;;;;;;4940338;29;19911;-59
2022/05/05 03:18:17;;;;;;;;;;;15.80;58.00;;;;;;4940135;29;19917;-59
2022/05/05 03:20:43;;;;;;;;;;;15.60;58.60;;;;;;4940191;29;20119;-60
2022/05/05 03:23:08;;;;;;;;;;;15.50;59.70;;;;;;4922917;29;20264;-60
2022/05/05 03:25:34;;;;;;;;;;;15.30;60.40;;;;;;4940468;29;20363;-59
2022/05/05 03:28:00;;;;;;;;;;;15.20;60.40;;;;;;4940261;29;19954;-60
2022/05/05 03:30:25;;;;;;;;;;;15.10;60.30;;;;;;4939907;29;20470;-59
2022/05/05 03:32:51;;;;;;;;;;;15.00;60.70;;;;;;4940171;29;19917;-59
2022/05/05 03:35:17;;;;;;;;;;;14.90;61.10;;;;;;4940190;29;19911;-61
2022/05/05 03:37:42;;;;;;;;;;;14.80;61.60;;;;;;4939850;29;19910;-61
2022/05/05 03:40:08;;;;;;;;;;;14.70;61.60;;;;;;4939547;29;19910;-61
2022/05/05 03:42:33;;;;;;;;;;;14.70;62.70;;;;;;4939792;29;19915;-61
2022/05/05 03:44:59;;;;;;;;;;;14.60;63.40;;;;;;4939965;29;19911;-61
2022/05/05 03:47:24;;;;;;;;;;;14.60;63.40;;;;;;4939925;29;19911;-60
2022/05/05 03:49:50;;;;;;;;;;;14.50;63.50;;;;;;4939552;29;20395;-62
2022/05/05 03:52:15;;;;;;;;;;;14.60;62.30;;;;;;4939852;29;20358;-64
2022/05/05 03:54:41;;;;;;;;;;;14.50;63.10;;;;;;4922358;29;20404;-64
2022/05/05 03:57:08;;;;;;;;;;;14.60;62.60;;;;;;4939368;29;20409;-66
2022/05/05 03:59:34;;;;;;;;;;;14.50;63.00;;;;;;4939379;29;19919;-59
2022/05/05 04:01:59;;;;;;;;;;;14.50;63.50;;;;;;4939367;29;19922;-59
2022/05/05 04:04:25;;;;;;;;;;;14.50;63.70;;;;;;4939230;29;19923;-59
2022/05/05 04:06:51;;;;;;;;;;;14.40;63.40;;;;;;4939100;29;19960;-59
2022/05/05 04:09:16;;;;;;;;;;;14.30;63.20;;;;;;4939024;29;19917;-59
2022/05/05 04:11:42;;;;;;;;;;;14.20;63.50;;;;;;4939574;29;19911;-60
2022/05/05 04:14:07;;;;;;;;;;;14.20;63.50;;;;;;4939256;29;19911;-60
2022/05/05 04:16:33;;;;;;;;;;;14.20;63.70;;;;;;4939276;29;19911;-62
2022/05/05 04:19:01;;;;;;;;;;;14.10;64.10;;;;;;4939009;29;20358;-62
2022/05/05 04:21:26;;;;;;;;;;;14.10;64.10;;;;;;4939140;29;19919;-59
2022/05/05 04:23:52;;;;;;;;;;;14.10;65.00;;;;;;4938514;29;19911;-59
2022/05/05 04:26:18;;;;;;;;;;;14.10;64.50;;;;;;4938485;29;19911;-59
2022/05/05 04:28:46;;;;;;;;;;;14.10;64.30;;;;;;4938919;29;19937;-59
2022/05/05 04:31:16;;;;;;;;;;;14.00;65.30;;;;;;4939164;29;19911;-59
2022/05/05 04:33:41;;;;;;;;;;;13.90;65.40;;;;;;4938913;29;19910;-60
2022/05/05 04:36:10;;;;;;;;;;;13.90;65.50;;;;;;4938814;29;19918;-59
2022/05/05 04:38:36;;;;;;;;;;;13.90;65.30;;;;;;4938677;29;20404;-60
2022/05/05 04:41:02;;;;;;;;;;;13.90;64.80;;;;;;4938871;29;19919;-60
2022/05/05 04:43:27;;;;;;;;;;;13.90;64.00;;;;;;4939264;29;19911;-60
2022/05/05 04:45:53;;;;;;;;;;;14.00;63.70;;;;;;4938891;29;20282;-60
2022/05/05 04:48:18;;;;;;;;;;;14.00;63.20;;;;;;4938564;29;20268;-60
2022/05/05 04:50:44;;;;;;;;;;;14.00;64.30;;;;;;4938506;29;19914;-59
2022/05/05 04:53:09;;;;;;;;;;;14.00;65.00;;;;;;4938336;29;19957;-59
2022/05/05 04:55:35;;;;;;;;;;;14.00;65.70;;;;;;4938601;29;19915;-59
2022/05/05 04:58:01;;;;;;;;;;;14.00;64.60;;;;;;4938529;29;19954;-59
2022/05/05 05:00:27;;;;;;;;;;;13.90;65.70;;;;;;4938111;29;19915;-59
2022/05/05 05:02:53;;;;;;;;;;;13.90;65.70;;;;;;4938474;29;19968;-59
2022/05/05 05:05:18;;;;;;;;;;;14.00;66.10;;;;;;4938472;29;19954;-59
2022/05/05 05:07:44;;;;;;;;;;;13.90;65.90;;;;;;4938472;29;19921;-60
2022/05/05 05:10:10;;;;;;;;;;;14.00;66.40;;;;;;4938597;29;19911;-59
2022/05/05 05:12:35;;;;;;;;;;;14.00;66.80;;;;;;4938372;29;20380;-60
2022/05/05 05:15:01;;;;;;;;;;;14.00;66.80;;;;;;4938071;29;19959;-59
2022/05/05 05:17:27;;;;;;;;;;;13.90;66.80;;;;;;4938066;29;19918;-59
2022/05/05 05:19:52;;;;;;;;;;;13.90;67.20;;;;;;4937912;29;19918;-61
2022/05/05 05:22:18;;;;;;;;;;;14.10;66.30;;;;;;4940979;29;19918;-63
2022/05/05 05:24:44;;;;;;;;;;;14.10;66.80;;;;;;4941534;29;19915;-59
2022/05/05 05:27:09;;;;;;;;;;;14.20;66.00;;;;;;4943544;29;19910;-60
2022/05/05 05:29:35;;;;;;;;;;;14.30;65.20;;;;;;4938168;29;20289;-59
2022/05/05 05:32:00;;;;;;;;;;;14.30;64.30;;;;;;4943460;29;19918;-60
2022/05/05 05:34:26;;;;;;;;;;;14.30;64.80;;;;;;4951026;29;19975;-61
2022/05/05 05:36:52;;;;;;;;;;;14.40;65.50;;;;;;4952014;29;19910;-59
2022/05/05 05:39:17;;;;;;;;;;;14.40;66.60;;;;;;4951906;29;19911;-61
2022/05/05 05:41:43;;;;;;;;;;;14.40;67.00;;;;;;4943514;29;19926;-60
2022/05/05 05:44:09;;;;;;;;;;;14.50;64.10;;;;;;4937915;29;19911;-61
2022/05/05 05:46:34;;;;;;;;;;;14.70;62.60;;;;;;4937752;29;19910;-61
2022/05/05 05:49:00;;;;;;;;;;;14.80;63.60;;;;;;4937499;29;19911;-60
2022/05/05 05:51:25;;;;;;;;;;;15.10;65.10;;;;;;4937344;29;19911;-60
2022/05/05 05:53:51;;;;;;;;;;;15.50;65.10;;;;;;4937210;29;20483;-61
2022/05/05 05:56:17;;;;;;;;;;;16.00;62.80;;;;;;4937339;29;20001;-61
2022/05/05 05:58:43;;;;;;;;;;;16.50;60.60;;;;;;4937273;29;19910;-58
2022/05/05 06:01:08;;;;;;;;;;;17.10;59.30;;;;;;4937162;29;19918;-63
2022/05/05 06:06:19;;;;;;;;;;;18.00;56.60;;;;;;4937501;29;19917;-63
2022/05/05 06:08:44;;;;;;;;;;;18.30;55.90;;;;;;4936854;29;20067;-62
2022/05/05 06:11:11;;;;;;;;;;;18.60;54.20;;;;;;4936878;29;19966;-64
2022/05/05 06:13:37;;;;;;;;;;;18.90;54.40;;;;;;4936814;29;19911;-61
2022/05/05 06:16:04;;;;;;;;;;;19.10;54.10;;;;;;4936143;29;19990;-61
2022/05/05 06:18:30;;;;;;;;;;;19.40;53.50;;;;;;4936322;29;20310;-61
2022/05/05 06:20:56;;;;;;;;;;;19.60;53.20;;;;;;4936640;29;19918;-61
2022/05/05 06:23:22;;;;;;;;;;;19.80;52.00;;;;;;4936648;29;20422;-60
2022/05/05 06:25:47;;;;;;;;;;;20.00;51.70;;;;;;4936703;29;20359;-60
2022/05/05 06:28:13;;;;;;;;;;;20.20;53.40;;;;;;4936718;29;19918;-62
2022/05/05 06:30:38;;;;;;;;;;;20.40;52.60;;;;;;4936537;29;19918;-63
2022/05/05 06:33:04;;;;;;;;;;;20.50;50.50;;;;;;4936356;29;19962;-62
2022/05/05 06:35:29;;;;;;;;;;;20.60;49.20;;;;;;4936729;29;20378;-61
2022/05/05 06:37:55;;;;;;;;;;;20.60;47.10;;;;;;4936287;29;20010;-62
2022/05/05 06:40:20;;;;;;;;;;;20.60;46.00;;;;;;4936284;29;19926;-62
2022/05/05 06:42:48;;;;;;;;;;;20.50;45.70;;;;;;4936587;29;19911;-64
2022/05/05 06:45:14;;;;;;;;;;;20.60;46.10;;;;;;4936574;29;20275;-60
2022/05/05 06:47:40;;;;;;;;;;;20.60;45.80;;;;;;4936197;29;19918;-60
2022/05/05 06:50:06;;;;;;;;;;;20.60;43.80;;;;;;4936429;29;20410;-60
2022/05/05 06:52:31;;;;;;;;;;;20.60;43.80;;;;;;4936563;29;19990;-59
2022/05/05 06:54:57;;;;;;;;;;;20.60;43.90;;;;;;4936296;29;19953;-62
2022/05/05 06:57:23;;;;;;;;;;;20.50;43.50;;;;;;4936408;29;19915;-61
2022/05/05 06:59:48;;;;;;;;;;;20.60;44.20;;;;;;4936288;29;19915;-61
2022/05/05 07:02:14;;;;;;;;;;;20.80;45.60;;;;;;4936118;29;19974;-61
2022/05/05 07:07:24;;;;;;;;;;;21.10;41.50;;;;;;4936692;29;19953;-59
2022/05/05 07:12:34;;;;;;;;;;;21.30;41.20;;;;;;4936395;29;20374;-59
2022/05/05 07:14:59;;;;;;;;;;;21.40;41.50;;;;;;4936327;29;19943;-62
2022/05/05 07:17:25;;;;;;;;;;;21.50;41.60;;;;;;4936174;29;20359;-60
2022/05/05 07:19:52;;;;;;;;;;;21.50;40.40;;;;;;4936270;29;20355;-61
2022/05/05 07:22:17;;;;;;;;;;;21.40;40.40;;;;;;4936408;29;19918;-61
2022/05/05 07:24:43;;;;;;;;;;;21.10;40.70;;;;;;4936488;29;20046;-62
2022/05/05 07:27:09;;;;;;;;;;;21.20;40.40;;;;;;4942622;29;19918;-61
2022/05/05 07:29:34;;;;;;;;;;;21.20;39.90;;;;;;4944464;29;19919;-60
2022/05/05 07:32:01;;;;;;;;;;;21.40;40.40;;;;;;4946904;29;19917;-64
2022/05/05 07:34:27;;;;;;;;;;;21.50;41.70;;;;;;4946977;29;19984;-60
2022/05/05 07:36:52;;;;;;;;;;;21.80;41.20;;;;;;4946024;29;20013;-63
2022/05/05 07:39:18;;;;;;;;;;;21.80;38.90;;;;;;4947256;29;20375;-61
2022/05/05 07:41:44;;;;;;;;;;;21.60;39.50;;;;;;4945432;29;20398;-63
2022/05/05 07:44:09;;;;;;;;;;;21.80;40.60;;;;;;4945235;29;20017;-63
2022/05/05 07:46:36;;;;;;;;;;;22.00;39.30;;;;;;4954304;29;19951;-62
2022/05/05 07:49:02;;;;;;;;;;;22.00;40.60;;;;;;4954255;29;19993;-60
2022/05/05 07:51:28;;;;;;;;;;;22.20;40.10;;;;;;4954436;29;19918;-62
2022/05/05 07:56:39;;;;;;;;;;;22.40;38.80;;;;;;4953113;29;19933;-62
2022/05/05 07:59:05;;;;;;;;;;;22.40;39.10;;;;;;4944271;28;19910;-62
2022/05/05 08:01:30;;;;;;;;;;;22.40;38.10;;;;;;4947885;29;19926;-65
2022/05/05 08:03:56;;;;;;;;;;;22.50;37.80;;;;;;4946412;29;19922;-63
2022/05/05 08:06:21;;;;;;;;;;;22.40;39.40;;;;;;4946436;29;19918;-63
2022/05/05 08:08:47;;;;;;;;;;;22.30;37.00;;;;;;4947876;29;19917;-63
2022/05/05 08:11:13;;;;;;;;;;;21.80;38.20;;;;;;4943888;29;19917;-63
2022/05/05 08:13:38;;;;;;;;;;;21.80;38.60;;;;;;4940344;29;20331;-65
2022/05/05 08:16:04;;;;;;;;;;;21.60;39.70;;;;;;4947648;29;20358;-63
2022/05/05 08:18:29;;;;;;;;;;;21.70;40.40;;;;;;4948658;29;20056;-61
2022/05/05 08:20:55;;;;;;;;;;;21.70;40.10;;;;;;4946035;29;19925;-64
2022/05/05 08:23:20;;;;;;;;;;;22.00;41.40;;;;;;4956463;29;19914;-65
2022/05/05 08:28:30;;;;;;;;;;;22.10;39.30;;;;;;4956309;29;20421;-63
2022/05/05 08:30:56;;;;;;;;;;;21.90;39.80;;;;;;4950502;29;19914;-63
2022/05/05 08:33:24;;;;;;;;;;;21.90;39.50;;;;;;4945414;29;20396;-63
2022/05/05 08:35:49;;;;;;;;;;;22.00;39.50;;;;;;4947024;29;20004;-63
2022/05/05 08:38:17;;;;;;;;;;;22.10;39.40;;;;;;4946245;29;19947;-63
2022/05/05 08:40:43;;;;;;;;;;;22.10;39.30;;;;;;4944993;29;19915;-64
2022/05/05 08:43:09;;;;;;;;;;;21.90;40.20;;;;;;4946631;29;19917;-63
2022/05/05 08:45:37;;;;;;;;;;;21.60;40.60;;;;;;4946375;29;19915;-61
2022/05/05 08:48:10;;;;;;;;;;;21.60;42.10;;;;;;4947591;29;19921;-61
2022/05/05 08:50:37;;;;;;;;;;;21.60;42.50;;;;;;4946238;29;19911;-61
2022/05/05 08:53:03;;;;;;;;;;;21.90;42.80;;;;;;4944697;29;19911;-64
2022/05/05 08:55:29;;;;;;;;;;;22.00;42.20;;;;;;4946955;29;19910;-60
2022/05/05 08:57:55;;;;;;;;;;;21.80;40.90;;;;;;4946037;29;20362;-61
2022/05/05 09:00:21;;;;;;;;;;;21.40;40.70;;;;;;4944936;29;19915;-65
2022/05/05 09:02:51;;;;;;;;;;;21.20;41.10;;;;;;4947097;29;19929;-64
2022/05/05 09:05:37;;;;;;;;;;;21.20;42.10;;;;;;4949804;29;20007;-62
2022/05/05 09:08:02;;;;;;;;;;;21.40;42.10;;;;;;4948270;29;20347;-62
2022/05/05 09:10:40;;;;;;;;;;;21.70;42.80;;;;;;4945547;28;19911;-61
2022/05/05 09:13:06;;;;;;;;;;;21.90;42.60;;;;;;4945857;29;20278;-62
2022/05/05 09:15:33;;;;;;;;;;;21.90;40.10;;;;;;4947378;29;19910;-61
2022/05/05 09:18:11;;;;;;;;;;;21.80;39.60;;;;;;4947472;29;20286;-65
2022/05/05 09:20:37;;;;;;;;;;;21.80;41.20;;;;;;4946458;29;20355;-63
2022/05/05 09:23:02;;;;;;;;;;;22.10;43.00;;;;;;4947891;29;19910;-63
2022/05/05 09:25:42;;;;;;;;;;;22.30;42.60;;;;;;4946101;29;20017;-62
2022/05/05 09:28:21;;;;;;;;;;;22.50;42.00;;;;;;4939917;29;20355;-62
2022/05/05 09:30:47;;;;;;;;;;;22.20;38.80;;;;;;4953415;29;19914;-64
2022/05/05 09:33:17;;;;;;;;;;;21.50;39.50;;;;;;4952563;29;20397;-62
2022/05/05 09:35:43;;;;;;;;;;;21.30;42.30;;;;;;4947518;29;20019;-61
2022/05/05 09:38:08;;;;;;;;;;;21.60;43.70;;;;;;4945741;29;20278;-64
2022/05/05 09:40:34;;;;;;;;;;;21.80;41.60;;;;;;4946907;29;19941;-64
2022/05/05 09:43:01;;;;;;;;;;;22.00;41.80;;;;;;4946834;29;20368;-61
2022/05/05 09:45:30;;;;;;;;;;;22.20;41.70;;;;;;4946327;29;19983;-61
2022/05/05 09:48:04;;;;;;;;;;;22.10;39.80;;;;;;4955784;29;20394;-63
2022/05/05 09:50:33;;;;;;;;;;;22.10;41.60;;;;;;4951208;29;19915;-61
2022/05/05 09:58:34;;;;;;;;;;;22.30;39.20;;;;;;4946881;29;19965;-61
2022/05/05 10:01:24;;;;;;;;;;;22.40;41.50;;;;;;4944727;29;19927;-62
2022/05/05 10:04:03;;;;;;;;;;;22.50;42.10;;;;;;4936668;29;19934;-62
2022/05/05 10:06:31;;;;;;;;;;;22.50;41.20;;;;;;4937366;29;19918;-63
2022/05/05 10:09:07;;;;;;;;;;;22.50;40.60;;;;;;4919802;29;19950;-63
2022/05/05 10:11:34;;;;;;;;;;;22.60;42.50;;;;;;4937802;29;19911;-60
2022/05/05 10:14:00;;;;;;;;;;;22.70;41.80;;;;;;4940576;29;19915;-64
2022/05/05 10:16:26;;;;;;;;;;;22.80;41.10;;;;;;4940431;29;19918;-63
2022/05/05 10:18:52;;;;;;;;;;;23.00;41.70;;;;;;4940428;29;20023;-66
2022/05/05 10:21:30;;;;;;;;;;;23.00;40.20;;;;;;4940760;29;19922;-63
2022/05/05 10:24:09;;;;;;;;;;;23.00;40.20;;;;;;4936270;29;19961;-60
2022/05/05 10:26:35;;;;;;;;;;;23.10;41.50;;;;;;4939216;29;20057;-61
2022/05/05 10:29:01;;;;;;;;;;;22.90;39.20;;;;;;4945243;29;19945;-62
2022/05/05 10:31:30;;;;;;;;;;;22.90;41.20;;;;;;4945979;29;19919;-61
2022/05/05 10:33:59;;;;;;;;;;;23.00;40.80;;;;;;4944880;29;19918;-64
2022/05/05 10:36:25;;;;;;;;;;;22.90;40.50;;;;;;4945748;29;20294;-59
2022/05/05 10:38:52;;;;;;;;;;;22.90;41.80;;;;;;4946315;29;19918;-63
2022/05/05 10:41:30;;;;;;;;;;;22.90;40.50;;;;;;4944492;29;20295;-60
2022/05/05 10:44:13;;;;;;;;;;;23.10;39.90;;;;;;4944609;29;19911;-59
2022/05/05 10:46:58;;;;;;;;;;;23.20;39.70;;;;;;4949895;29;19917;-62
2022/05/05 10:49:39;;;;;;;;;;;23.10;37.00;;;;;;4955544;29;19958;-63
2022/05/05 10:52:08;;;;;;;;;;;23.10;39.70;;;;;;4955557;29;19918;-62
2022/05/05 10:54:34;;;;;;;;;;;22.80;39.00;;;;;;4955584;29;19911;-61
2022/05/05 10:57:18;;;;;;;;;;;22.90;40.40;;;;;;4955377;29;19933;-60
2022/05/05 11:00:04;;;;;;;;;;;22.90;39.60;;;;;;4954420;29;19935;-65
2022/05/05 11:02:30;;;;;;;;;;;23.00;40.10;;;;;;4953768;29;19919;-63
2022/05/05 11:05:15;;;;;;;;;;;23.00;39.40;;;;;;4954357;29;19914;-62
2022/05/05 11:07:43;;;;;;;;;;;23.00;40.70;;;;;;4953950;29;19910;-59
2022/05/05 11:10:29;;;;;;;;;;;23.10;40.20;;;;;;4953610;29;20271;-60
2022/05/05 11:12:54;;;;;;;;;;;23.00;39.20;;;;;;4953800;29;20445;-61
2022/05/05 11:23:46;;;;;;;;;;;23.10;39.10;;;;;;4950730;29;19925;-62
2022/05/05 11:26:14;;;;;;;;;;;23.10;39.00;;;;;;4951090;29;19934;-61
2022/05/05 11:28:39;;;;;;;;;;;23.00;38.00;;;;;;4953941;29;19950;-61
2022/05/05 11:31:16;;;;;;;;;;;22.90;40.30;;;;;;4953247;29;20224;-63
2022/05/05 11:33:41;;;;;;;;;;;22.90;38.90;;;;;;4955074;28;19937;-64
2022/05/05 11:36:07;;;;;;;;;;;22.90;38.70;;;;;;4940939;29;19961;-58
2022/05/05 11:38:40;;;;;;;;;;;22.80;38.70;;;;;;4958306;29;19911;-60
2022/05/05 11:41:06;;;;;;;;;;;22.80;39.60;;;;;;4959443;29;20053;-62
2022/05/05 11:46:16;;;;;;;;;;;22.70;39.80;;;;;;4965343;29;19917;-64
2022/05/05 11:48:43;;;;;;;;;;;22.60;39.40;;;;;;4965923;29;19954;-61
2022/05/05 11:51:09;;;;;;;;;;;22.80;40.70;;;;;;4964324;29;19910;-60
2022/05/05 11:53:35;;;;;;;;;;;22.80;39.40;;;;;;4965436;29;19918;-65
2022/05/05 11:56:01;;;;;;;;;;;22.90;39.70;;;;;;4964995;29;19911;-63
2022/05/05 12:04:00;;;;;;;;;;;22.70;40.60;;;;;;4957369;29;20009;-62
2022/05/05 12:06:26;;;;;;;;;;;22.60;41.40;;;;;;4957698;29;19915;-60
2022/05/05 12:08:52;;;;;;;;;;;22.50;42.00;;;;;;4957784;29;19911;-61
2022/05/05 12:11:18;;;;;;;;;;;22.50;42.80;;;;;;4958589;29;20310;-59
2022/05/05 12:13:44;;;;;;;;;;;22.50;43.70;;;;;;4957582;29;19914;-61
2022/05/05 12:16:12;;;;;;;;;;;22.40;43.60;;;;;;4959083;29;19919;-63
2022/05/05 12:18:51;;;;;;;;;;;22.40;43.90;;;;;;4960618;29;19910;-62
2022/05/05 12:21:20;;;;;;;;;;;22.30;45.00;;;;;;4961647;29;20263;-62
2022/05/05 12:23:54;;;;;;;;;;;22.20;44.70;;;;;;4962704;29;19936;-61
2022/05/05 12:26:19;;;;;;;;;;;22.10;44.90;;;;;;4965215;29;19911;-61
2022/05/05 12:28:51;;;;;;;;;;;22.20;45.80;;;;;;4966044;29;20069;-63
2022/05/05 12:31:21;;;;;;;;;;;22.00;46.00;;;;;;4959800;29;20000;-61
2022/05/05 12:33:47;;;;;;;;;;;22.00;46.60;;;;;;4956780;29;20267;-62
2022/05/05 12:36:22;;;;;;;;;;;22.00;46.60;;;;;;4956437;29;20396;-63
2022/05/05 12:38:47;;;;;;;;;;;22.00;46.70;;;;;;4956515;29;20026;-63
2022/05/05 12:41:13;;;;;;;;;;;22.00;46.70;;;;;;4956567;29;20025;-63
2022/05/05 12:43:39;;;;;;;;;;;22.00;47.10;;;;;;4956563;29;20377;-63
2022/05/05 12:46:04;;;;;;;;;;;22.00;47.20;;;;;;4955867;28;19965;-62
2022/05/05 12:48:31;;;;;;;;;;;22.00;47.80;;;;;;4956330;29;19942;-63
2022/05/05 12:50:57;;;;;;;;;;;22.00;47.70;;;;;;4956119;29;19917;-62
2022/05/05 13:01:43;;;;;;;;;;;21.90;46.50;;;;;;4956618;29;19973;-62
2022/05/05 13:04:12;;;;;;;;;;;21.70;47.60;;;;;;4955686;28;19946;-61
2022/05/05 13:06:38;;;;;;;;;;;21.70;48.10;;;;;;4954803;29;20298;-61
2022/05/05 13:09:05;;;;;;;;;;;21.70;48.50;;;;;;4955315;29;19910;-62
2022/05/05 13:11:31;;;;;;;;;;;21.60;47.80;;;;;;4955679;29;20240;-63
2022/05/05 13:13:57;;;;;;;;;;;21.60;47.60;;;;;;4955481;29;19911;-62
2022/05/05 13:16:23;;;;;;;;;;;21.30;48.10;;;;;;4955922;29;19917;-63
2022/05/05 13:18:49;;;;;;;;;;;20.70;49.20;;;;;;4955744;29;20249;-62
2022/05/05 13:21:14;;;;;;;;;;;20.80;50.70;;;;;;4955467;29;19965;-63
2022/05/05 13:23:40;;;;;;;;;;;20.70;50.00;;;;;;4938311;29;20339;-62
2022/05/05 13:26:05;;;;;;;;;;;20.70;50.00;;;;;;4955339;29;20001;-62
2022/05/05 13:28:31;;;;;;;;;;;21.00;50.60;;;;;;4955633;29;20029;-63
2022/05/05 13:30:57;;;;;;;;;;;21.10;50.50;;;;;;4955629;29;19974;-61
2022/05/05 13:33:23;;;;;;;;;;;21.20;49.70;;;;;;4955564;29;19942;-64
2022/05/05 13:35:49;;;;;;;;;;;21.10;49.60;;;;;;4955694;29;19945;-62
2022/05/05 13:38:15;;;;;;;;;;;21.30;49.80;;;;;;4954791;29;19914;-63
2022/05/05 13:40:40;;;;;;;;;;;21.20;50.00;;;;;;4947723;29;19926;-64
2022/05/05 13:43:06;;;;;;;;;;;21.00;49.70;;;;;;4946308;29;20006;-62
2022/05/05 13:45:32;;;;;;;;;;;20.90;51.00;;;;;;4930522;29;19911;-63
2022/05/05 13:47:57;;;;;;;;;;;21.00;49.90;;;;;;4946414;29;19915;-64
2022/05/05 13:50:23;;;;;;;;;;;21.10;50.30;;;;;;4946091;29;19911;-63
2022/05/05 13:52:48;;;;;;;;;;;21.00;50.10;;;;;;4947669;29;19915;-63
2022/05/05 13:55:14;;;;;;;;;;;21.10;50.10;;;;;;4945666;29;20206;-63
2022/05/05 13:57:40;;;;;;;;;;;21.20;50.00;;;;;;4945405;29;19984;-66
2022/05/05 14:00:13;;;;;;;;;;;21.30;50.00;;;;;;4947364;29;19918;-61
2022/05/05 14:02:39;;;;;;;;;;;21.20;49.50;;;;;;4946069;29;19927;-63
2022/05/05 14:05:05;;;;;;;;;;;21.10;49.20;;;;;;4945342;29;19922;-62
2022/05/05 14:12:59;;;;;;;;;;;21.10;48.40;;;;;;4939020;29;19920;-62
2022/05/05 14:15:25;;;;;;;;;;;21.00;49.40;;;;;;4945615;29;20013;-63
2022/05/05 14:17:51;;;;;;;;;;;21.10;50.50;;;;;;4945741;29;19911;-63
2022/05/05 14:20:16;;;;;;;;;;;21.20;50.30;;;;;;4946638;29;19976;-64
2022/05/05 14:22:42;;;;;;;;;;;21.20;49.00;;;;;;4944201;29;20359;-64
2022/05/05 14:25:10;;;;;;;;;;;21.10;48.80;;;;;;4937059;29;19918;-63
2022/05/05 14:27:36;;;;;;;;;;;21.20;48.70;;;;;;4936818;29;19911;-62
2022/05/05 14:30:02;;;;;;;;;;;21.20;49.00;;;;;;4936684;29;20041;-64
2022/05/05 14:32:28;;;;;;;;;;;21.30;49.50;;;;;;4936666;29;20415;-61
2022/05/05 14:34:54;;;;;;;;;;;21.30;49.40;;;;;;4936617;29;19989;-64
2022/05/05 14:37:19;;;;;;;;;;;21.30;49.20;;;;;;4937183;29;20063;-61
2022/05/05 14:39:45;;;;;;;;;;;21.30;50.00;;;;;;4936782;29;19962;-64
2022/05/05 14:42:10;;;;;;;;;;;21.30;49.90;;;;;;4936829;29;20297;-65
2022/05/05 14:44:36;;;;;;;;;;;21.20;50.40;;;;;;4936788;29;19918;-64
2022/05/05 14:47:02;;;;;;;;;;;21.20;50.70;;;;;;4936534;29;19911;-64
2022/05/05 14:49:27;;;;;;;;;;;21.20;50.60;;;;;;4936309;29;19911;-63
2022/05/05 14:51:53;;;;;;;;;;;21.20;50.90;;;;;;4936675;29;19911;-65
2022/05/05 14:54:18;;;;;;;;;;;21.20;51.10;;;;;;4936651;29;19966;-63
2022/05/05 14:56:44;;;;;;;;;;;21.20;50.40;;;;;;4936447;29;19918;-61
2022/05/05 14:59:09;;;;;;;;;;;21.20;50.10;;;;;;4936399;29;19958;-62
2022/05/05 15:01:35;;;;;;;;;;;21.20;50.50;;;;;;4935990;29;19973;-63
2022/05/05 15:04:01;;;;;;;;;;;21.30;49.80;;;;;;4929146;29;20204;-64
2022/05/05 15:06:27;;;;;;;;;;;21.30;49.70;;;;;;4944554;29;19910;-64
2022/05/05 15:08:53;;;;;;;;;;;21.30;49.70;;;;;;4945700;29;20335;-64
2022/05/05 15:11:18;;;;;;;;;;;21.40;50.10;;;;;;4949525;29;19963;-64
2022/05/05 15:13:44;;;;;;;;;;;21.40;50.30;;;;;;4949488;29;20389;-64
2022/05/05 15:16:10;;;;;;;;;;;21.30;50.20;;;;;;4948055;29;20021;-64